sensor_id;sensor_type;location;lat;lon;timestamp;temperature;humidity
51739;DHT22;37815;52.692;6.226;2022-10-13T00:04:25;13.40;93.30
51739;DHT22;37815;52.692;6.226;2022-10-13T00:09:26;13.40;93.30
51739;DHT22;37815;52.692;6.226;2022-10-13T00:14:27;13.40;93.30
51739;DHT22;37815;52.692;6.226;2022-10-13T00:19:27;13.40;93.30
51739;DHT22;37815;52.692;6.226;2022-10-13T00:24:29;13.30;93.30
51739;DHT22;37815;52.692;6.226;2022-10-13T00:29:30;13.30;93.40
51739;DHT22;37815;52.692;6.226;2022-10-13T00:34:31;13.30;93.30
51739;DHT22;37815;52.692;6.226;2022-10-13T00:39:31;13.40;93.70
51739;DHT22;37815;52.692;6.226;2022-10-13T00:49:59;13.40;93.40
51739;DHT22;37815;52.692;6.226;2022-10-13T00:55:01;13.30;93.40
51739;DHT22;37815;52.692;6.226;2022-10-13T01:00:03;13.30;93.40
51739;DHT22;37815;52.692;6.226;2022-10-13T01:05:05;13.30;93.40
51739;DHT22;37815;52.692;6.226;2022-10-13T01:10:07;13.30;93.40
51739;DHT22;37815;52.692;6.226;2022-10-13T01:20:22;13.30;93.50
51739;DHT22;37815;52.692;6.226;2022-10-13T01:31:14;13.30;93.50
51739;DHT22;37815;52.692;6.226;2022-10-13T01:41:36;13.30;93.50
51739;DHT22;37815;52.692;6.226;2022-10-13T01:46:38;13.20;93.50
51739;DHT22;37815;52.692;6.226;2022-10-13T01:51:40;13.20;93.50
51739;DHT22;37815;52.692;6.226;2022-10-13T01:56:41;13.20;93.50
51739;DHT22;37815;52.692;6.226;2022-10-13T02:07:23;13.20;93.60
51739;DHT22;37815;52.692;6.226;2022-10-13T02:12:35;13.20;93.60
51739;DHT22;37815;52.692;6.226;2022-10-13T02:17:39;13.20;93.60
51739;DHT22;37815;52.692;6.226;2022-10-13T02:22:43;13.20;93.60
51739;DHT22;37815;52.692;6.226;2022-10-13T02:27:44;13.20;93.60
51739;DHT22;37815;52.692;6.226;2022-10-13T02:32:45;13.20;93.60
51739;DHT22;37815;52.692;6.226;2022-10-13T02:37:46;13.20;93.60
51739;DHT22;37815;52.692;6.226;2022-10-13T02:42:47;13.20;93.90
51739;DHT22;37815;52.692;6.226;2022-10-13T02:47:48;13.20;93.60
51739;DHT22;37815;52.692;6.226;2022-10-13T02:52:48;13.20;93.60
51739;DHT22;37815;52.692;6.226;2022-10-13T02:57:49;13.20;93.60
51739;DHT22;37815;52.692;6.226;2022-10-13T03:02:50;13.20;93.60
51739;DHT22;37815;52.692;6.226;2022-10-13T03:07:51;13.20;93.70
51739;DHT22;37815;52.692;6.226;2022-10-13T03:12:53;13.20;93.70
51739;DHT22;37815;52.692;6.226;2022-10-13T03:17:54;13.20;93.70
51739;DHT22;37815;52.692;6.226;2022-10-13T03:22:55;13.20;93.70
51739;DHT22;37815;52.692;6.226;2022-10-13T03:27:55;13.10;93.70
51739;DHT22;37815;52.692;6.226;2022-10-13T03:32:56;13.20;93.70
51739;DHT22;37815;52.692;6.226;2022-10-13T03:37:57;13.20;93.80
51739;DHT22;37815;52.692;6.226;2022-10-13T03:42:58;13.10;93.80
51739;DHT22;37815;52.692;6.226;2022-10-13T03:47:58;13.20;93.80
51739;DHT22;37815;52.692;6.226;2022-10-13T03:52:59;13.10;93.80
51739;DHT22;37815;52.692;6.226;2022-10-13T03:58:00;13.20;93.90
51739;DHT22;37815;52.692;6.226;2022-10-13T04:03:01;13.10;93.90
51739;DHT22;37815;52.692;6.226;2022-10-13T04:08:02;13.20;93.90
51739;DHT22;37815;52.692;6.226;2022-10-13T04:13:03;13.20;94.00
51739;DHT22;37815;52.692;6.226;2022-10-13T04:18:05;13.20;94.00
51739;DHT22;37815;52.692;6.226;2022-10-13T04:23:06;13.20;94.00
51739;DHT22;37815;52.692;6.226;2022-10-13T04:28:07;13.20;94.00
51739;DHT22;37815;52.692;6.226;2022-10-13T04:33:08;13.10;94.00
51739;DHT22;37815;52.692;6.226;2022-10-13T04:38:09;13.10;94.00
51739;DHT22;37815;52.692;6.226;2022-10-13T04:43:10;13.10;94.10
51739;DHT22;37815;52.692;6.226;2022-10-13T04:48:10;13.20;94.20
51739;DHT22;37815;52.692;6.226;2022-10-13T04:53:11;13.20;94.20
51739;DHT22;37815;52.692;6.226;2022-10-13T04:58:11;13.20;94.20
51739;DHT22;37815;52.692;6.226;2022-10-13T05:03:12;13.20;94.20
51739;DHT22;37815;52.692;6.226;2022-10-13T05:08:13;13.10;94.20
51739;DHT22;37815;52.692;6.226;2022-10-13T05:13:13;13.20;94.20
51739;DHT22;37815;52.692;6.226;2022-10-13T05:18:15;13.20;94.30
51739;DHT22;37815;52.692;6.226;2022-10-13T05:23:16;13.10;94.20
51739;DHT22;37815;52.692;6.226;2022-10-13T05:28:16;13.20;94.30
51739;DHT22;37815;52.692;6.226;2022-10-13T05:33:17;13.20;94.30
51739;DHT22;37815;52.692;6.226;2022-10-13T05:38:18;13.20;94.30
51739;DHT22;37815;52.692;6.226;2022-10-13T05:43:18;13.20;94.30
51739;DHT22;37815;52.692;6.226;2022-10-13T05:48:19;13.20;94.40
51739;DHT22;37815;52.692;6.226;2022-10-13T05:53:22;13.20;94.40
51739;DHT22;37815;52.692;6.226;2022-10-13T05:58:23;13.20;94.40
51739;DHT22;37815;52.692;6.226;2022-10-13T06:03:24;13.20;94.40
51739;DHT22;37815;52.692;6.226;2022-10-13T06:08:28;13.20;94.40
51739;DHT22;37815;52.692;6.226;2022-10-13T06:13:29;13.20;94.40
51739;DHT22;37815;52.692;6.226;2022-10-13T06:18:29;13.20;94.40
51739;DHT22;37815;52.692;6.226;2022-10-13T06:23:30;13.20;94.40
51739;DHT22;37815;52.692;6.226;2022-10-13T06:28:31;13.20;94.50
51739;DHT22;37815;52.692;6.226;2022-10-13T06:33:32;13.20;94.50
51739;DHT22;37815;52.692;6.226;2022-10-13T06:38:33;13.20;94.50
51739;DHT22;37815;52.692;6.226;2022-10-13T06:43:33;13.20;94.50
51739;DHT22;37815;52.692;6.226;2022-10-13T06:48:34;13.20;94.50
51739;DHT22;37815;52.692;6.226;2022-10-13T06:53:35;13.20;94.50
51739;DHT22;37815;52.692;6.226;2022-10-13T06:58:37;13.20;94.50
51739;DHT22;37815;52.692;6.226;2022-10-13T07:03:38;13.10;94.60
51739;DHT22;37815;52.692;6.226;2022-10-13T07:08:38;13.20;94.60
51739;DHT22;37815;52.692;6.226;2022-10-13T07:13:40;13.20;94.70
51739;DHT22;37815;52.692;6.226;2022-10-13T07:18:41;13.20;94.70
51739;DHT22;37815;52.692;6.226;2022-10-13T07:23:42;13.20;94.70
51739;DHT22;37815;52.692;6.226;2022-10-13T07:28:43;13.20;94.70
51739;DHT22;37815;52.692;6.226;2022-10-13T07:33:46;13.20;94.60
51739;DHT22;37815;52.692;6.226;2022-10-13T07:38:47;13.20;94.60
51739;DHT22;37815;52.692;6.226;2022-10-13T07:43:48;13.30;94.70
51739;DHT22;37815;52.692;6.226;2022-10-13T07:48:49;13.30;94.60
51739;DHT22;37815;52.692;6.226;2022-10-13T07:53:51;13.30;94.60
51739;DHT22;37815;52.692;6.226;2022-10-13T07:58:51;13.40;94.60
51739;DHT22;37815;52.692;6.226;2022-10-13T08:03:54;13.30;94.60
51739;DHT22;37815;52.692;6.226;2022-10-13T08:08:56;13.40;94.60
51739;DHT22;37815;52.692;6.226;2022-10-13T08:13:57;13.40;94.60
51739;DHT22;37815;52.692;6.226;2022-10-13T08:19:00;13.50;94.60
51739;DHT22;37815;52.692;6.226;2022-10-13T08:24:05;13.40;94.50
51739;DHT22;37815;52.692;6.226;2022-10-13T08:29:06;13.50;94.60
51739;DHT22;37815;52.692;6.226;2022-10-13T08:34:07;13.50;94.80
51739;DHT22;37815;52.692;6.226;2022-10-13T08:39:09;13.50;94.80
51739;DHT22;37815;52.692;6.226;2022-10-13T08:44:49;13.50;94.90
51739;DHT22;37815;52.692;6.226;2022-10-13T08:49:50;13.50;95.60
51739;DHT22;37815;52.692;6.226;2022-10-13T08:54:59;13.50;95.20
51739;DHT22;37815;52.692;6.226;2022-10-13T09:00:00;13.60;95.30
51739;DHT22;37815;52.692;6.226;2022-10-13T09:05:01;13.60;95.50
51739;DHT22;37815;52.692;6.226;2022-10-13T09:10:03;13.60;95.50
51739;DHT22;37815;52.692;6.226;2022-10-13T09:15:08;13.60;95.50
51739;DHT22;37815;52.692;6.226;2022-10-13T09:20:24;13.70;95.70
51739;DHT22;37815;52.692;6.226;2022-10-13T09:25:59;13.70;96.20
51739;DHT22;37815;52.692;6.226;2022-10-13T09:36:16;13.30;95.80
51739;DHT22;37815;52.692;6.226;2022-10-13T09:41:20;13.70;95.90
51739;DHT22;37815;52.692;6.226;2022-10-13T09:46:37;13.70;96.00
51739;DHT22;37815;52.692;6.226;2022-10-13T09:51:40;13.70;96.00
51739;DHT22;37815;52.692;6.226;2022-10-13T09:56:46;13.60;96.00
51739;DHT22;37815;52.692;6.226;2022-10-13T10:01:49;13.70;96.20
51739;DHT22;37815;52.692;6.226;2022-10-13T10:06:52;13.70;96.20
51739;DHT22;37815;52.692;6.226;2022-10-13T10:11:54;14.00;96.20
51739;DHT22;37815;52.692;6.226;2022-10-13T10:27:20;13.70;96.20
51739;DHT22;37815;52.692;6.226;2022-10-13T10:38:25;13.70;96.20
51739;DHT22;37815;52.692;6.226;2022-10-13T10:49:38;13.70;96.70
51739;DHT22;37815;52.692;6.226;2022-10-13T10:54:50;13.70;96.40
51739;DHT22;37815;52.692;6.226;2022-10-13T11:00:05;13.70;96.30
51739;DHT22;37815;52.692;6.226;2022-10-13T11:05:06;13.70;96.20
51739;DHT22;37815;52.692;6.226;2022-10-13T11:15:22;13.80;96.40
51739;DHT22;37815;52.692;6.226;2022-10-13T11:25:46;13.80;96.50
51739;DHT22;37815;52.692;6.226;2022-10-13T11:30:55;13.80;96.30
51739;DHT22;37815;52.692;6.226;2022-10-13T11:35:56;13.80;96.30
51739;DHT22;37815;52.692;6.226;2022-10-13T11:41:21;13.80;96.30
51739;DHT22;37815;52.692;6.226;2022-10-13T11:56:52;13.80;96.30
51739;DHT22;37815;52.692;6.226;2022-10-13T12:07:03;13.80;96.20
51739;DHT22;37815;52.692;6.226;2022-10-13T12:12:16;13.80;96.20
51739;DHT22;37815;52.692;6.226;2022-10-13T12:17:30;13.80;96.20
51739;DHT22;37815;52.692;6.226;2022-10-13T12:22:31;13.80;96.20
51739;DHT22;37815;52.692;6.226;2022-10-13T12:27:44;13.80;96.10
51739;DHT22;37815;52.692;6.226;2022-10-13T12:32:50;13.80;96.10
51739;DHT22;37815;52.692;6.226;2022-10-13T12:37:53;13.80;96.10
51739;DHT22;37815;52.692;6.226;2022-10-13T12:42:54;13.80;96.10
51739;DHT22;37815;52.692;6.226;2022-10-13T12:47:55;13.90;96.00
51739;DHT22;37815;52.692;6.226;2022-10-13T12:58:17;13.90;96.00
51739;DHT22;37815;52.692;6.226;2022-10-13T13:03:22;13.90;95.90
51739;DHT22;37815;52.692;6.226;2022-10-13T13:08:29;13.90;95.90
51739;DHT22;37815;52.692;6.226;2022-10-13T13:13:31;13.90;95.90
51739;DHT22;37815;52.692;6.226;2022-10-13T13:18:36;14.00;96.50
51739;DHT22;37815;52.692;6.226;2022-10-13T13:23:39;14.00;96.60
51739;DHT22;37815;52.692;6.226;2022-10-13T13:28:48;14.00;96.50
51739;DHT22;37815;52.692;6.226;2022-10-13T13:33:50;14.10;96.60
51739;DHT22;37815;52.692;6.226;2022-10-13T13:38:51;14.00;96.50
51739;DHT22;37815;52.692;6.226;2022-10-13T13:43:53;14.00;96.50
51739;DHT22;37815;52.692;6.226;2022-10-13T13:48:54;14.00;96.50
51739;DHT22;37815;52.692;6.226;2022-10-13T13:53:54;14.00;96.70
51739;DHT22;37815;52.692;6.226;2022-10-13T13:58:55;14.00;96.40
51739;DHT22;37815;52.692;6.226;2022-10-13T14:03:55;14.00;96.40
51739;DHT22;37815;52.692;6.226;2022-10-13T14:08:56;14.00;96.40
51739;DHT22;37815;52.692;6.226;2022-10-13T14:13:57;14.10;96.50
51739;DHT22;37815;52.692;6.226;2022-10-13T14:19:10;14.00;96.40
51739;DHT22;37815;52.692;6.226;2022-10-13T14:24:11;14.10;97.20
51739;DHT22;37815;52.692;6.226;2022-10-13T14:29:12;14.20;97.30
51739;DHT22;37815;52.692;6.226;2022-10-13T14:34:13;14.20;97.40
51739;DHT22;37815;52.692;6.226;2022-10-13T14:39:14;14.20;97.40
51739;DHT22;37815;52.692;6.226;2022-10-13T14:44:15;14.20;97.40
51739;DHT22;37815;52.692;6.226;2022-10-13T14:49:16;14.20;97.30
51739;DHT22;37815;52.692;6.226;2022-10-13T14:54:17;14.20;97.30
51739;DHT22;37815;52.692;6.226;2022-10-13T14:59:18;14.10;97.30
51739;DHT22;37815;52.692;6.226;2022-10-13T15:04:18;14.10;97.60
51739;DHT22;37815;52.692;6.226;2022-10-13T15:09:19;14.00;97.30
51739;DHT22;37815;52.692;6.226;2022-10-13T15:14:20;14.10;97.30
51739;DHT22;37815;52.692;6.226;2022-10-13T15:19:20;14.10;97.40
51739;DHT22;37815;52.692;6.226;2022-10-13T15:24:21;14.10;97.40
51739;DHT22;37815;52.692;6.226;2022-10-13T15:29:22;14.20;97.50
51739;DHT22;37815;52.692;6.226;2022-10-13T15:34:23;14.10;97.40
51739;DHT22;37815;52.692;6.226;2022-10-13T15:39:25;14.10;97.50
51739;DHT22;37815;52.692;6.226;2022-10-13T15:44:26;14.10;97.50
51739;DHT22;37815;52.692;6.226;2022-10-13T15:49:27;14.10;97.50
51739;DHT22;37815;52.692;6.226;2022-10-13T15:54:27;14.10;97.50
51739;DHT22;37815;52.692;6.226;2022-10-13T15:59:28;14.10;97.50
51739;DHT22;37815;52.692;6.226;2022-10-13T16:04:29;14.10;97.50
51739;DHT22;37815;52.692;6.226;2022-10-13T16:09:30;14.10;97.50
51739;DHT22;37815;52.692;6.226;2022-10-13T16:14:31;14.10;97.60
51739;DHT22;37815;52.692;6.226;2022-10-13T16:19:31;14.10;97.70
51739;DHT22;37815;52.692;6.226;2022-10-13T16:24:32;14.10;97.80
51739;DHT22;37815;52.692;6.226;2022-10-13T16:29:33;14.20;98.00
51739;DHT22;37815;52.692;6.226;2022-10-13T16:34:34;14.20;97.90
51739;DHT22;37815;52.692;6.226;2022-10-13T16:39:35;14.30;98.00
51739;DHT22;37815;52.692;6.226;2022-10-13T16:44:36;14.20;98.00
51739;DHT22;37815;52.692;6.226;2022-10-13T16:49:36;14.20;98.20
51739;DHT22;37815;52.692;6.226;2022-10-13T16:54:37;14.20;98.00
51739;DHT22;37815;52.692;6.226;2022-10-13T16:59:38;14.20;98.00
51739;DHT22;37815;52.692;6.226;2022-10-13T17:04:39;14.20;98.00
51739;DHT22;37815;52.692;6.226;2022-10-13T17:09:39;14.20;98.00
51739;DHT22;37815;52.692;6.226;2022-10-13T17:14:40;14.20;97.90
51739;DHT22;37815;52.692;6.226;2022-10-13T17:19:41;14.20;98.50
51739;DHT22;37815;52.692;6.226;2022-10-13T17:24:41;14.10;98.70
51739;DHT22;37815;52.692;6.226;2022-10-13T17:29:47;14.20;98.70
51739;DHT22;37815;52.692;6.226;2022-10-13T17:34:48;14.20;98.70
51739;DHT22;37815;52.692;6.226;2022-10-13T17:39:49;14.20;98.70
51739;DHT22;37815;52.692;6.226;2022-10-13T17:44:49;14.20;98.70
51739;DHT22;37815;52.692;6.226;2022-10-13T17:49:50;14.10;98.60
51739;DHT22;37815;52.692;6.226;2022-10-13T17:54:51;14.10;98.50
51739;DHT22;37815;52.692;6.226;2022-10-13T17:59:51;14.10;98.60
51739;DHT22;37815;52.692;6.226;2022-10-13T18:04:52;14.10;98.50
51739;DHT22;37815;52.692;6.226;2022-10-13T18:09:53;14.10;98.50
51739;DHT22;37815;52.692;6.226;2022-10-13T18:14:54;14.10;98.50
51739;DHT22;37815;52.692;6.226;2022-10-13T18:19:54;14.10;98.50
51739;DHT22;37815;52.692;6.226;2022-10-13T18:24:57;14.10;98.40
51739;DHT22;37815;52.692;6.226;2022-10-13T18:29:57;14.10;98.40
51739;DHT22;37815;52.692;6.226;2022-10-13T18:34:58;14.10;98.40
51739;DHT22;37815;52.692;6.226;2022-10-13T18:39:59;14.10;98.40
51739;DHT22;37815;52.692;6.226;2022-10-13T18:45:00;14.10;98.30
51739;DHT22;37815;52.692;6.226;2022-10-13T18:50:00;14.10;98.30
51739;DHT22;37815;52.692;6.226;2022-10-13T18:55:01;14.10;98.30
51739;DHT22;37815;52.692;6.226;2022-10-13T19:00:02;14.10;98.20
51739;DHT22;37815;52.692;6.226;2022-10-13T19:05:05;14.10;98.20
51739;DHT22;37815;52.692;6.226;2022-10-13T19:10:06;14.10;98.20
51739;DHT22;37815;52.692;6.226;2022-10-13T19:15:07;14.10;98.20
51739;DHT22;37815;52.692;6.226;2022-10-13T19:20:08;14.10;98.10
51739;DHT22;37815;52.692;6.226;2022-10-13T19:25:09;14.10;98.10
51739;DHT22;37815;52.692;6.226;2022-10-13T19:30:11;14.10;98.10
51739;DHT22;37815;52.692;6.226;2022-10-13T19:35:12;14.10;98.10
51739;DHT22;37815;52.692;6.226;2022-10-13T19:40:13;14.10;98.10
51739;DHT22;37815;52.692;6.226;2022-10-13T19:45:14;14.10;98.10
51739;DHT22;37815;52.692;6.226;2022-10-13T19:50:14;14.10;98.00
51739;DHT22;37815;52.692;6.226;2022-10-13T19:55:15;14.00;98.00
51739;DHT22;37815;52.692;6.226;2022-10-13T20:00:16;14.10;98.00
51739;DHT22;37815;52.692;6.226;2022-10-13T20:05:17;14.10;98.00
51739;DHT22;37815;52.692;6.226;2022-10-13T20:10:17;14.10;98.00
51739;DHT22;37815;52.692;6.226;2022-10-13T20:15:18;14.10;98.00
51739;DHT22;37815;52.692;6.226;2022-10-13T20:20:19;14.00;98.00
51739;DHT22;37815;52.692;6.226;2022-10-13T20:25:40;14.10;98.00
51739;DHT22;37815;52.692;6.226;2022-10-13T20:30:40;14.10;98.00
51739;DHT22;37815;52.692;6.226;2022-10-13T20:35:41;14.10;98.10
51739;DHT22;37815;52.692;6.226;2022-10-13T20:40:42;14.10;98.20
51739;DHT22;37815;52.692;6.226;2022-10-13T20:45:43;14.10;98.20
51739;DHT22;37815;52.692;6.226;2022-10-13T20:50:43;14.10;98.20
51739;DHT22;37815;52.692;6.226;2022-10-13T20:55:54;14.10;98.20
51739;DHT22;37815;52.692;6.226;2022-10-13T21:00:55;14.10;98.20
51739;DHT22;37815;52.692;6.226;2022-10-13T21:05:56;14.10;98.20
51739;DHT22;37815;52.692;6.226;2022-10-13T21:11:05;14.10;98.20
51739;DHT22;37815;52.692;6.226;2022-10-13T21:16:08;14.10;98.20
51739;DHT22;37815;52.692;6.226;2022-10-13T21:21:10;14.10;98.10
51739;DHT22;37815;52.692;6.226;2022-10-13T21:26:11;14.10;98.10
51739;DHT22;37815;52.692;6.226;2022-10-13T21:31:13;14.10;98.10
51739;DHT22;37815;52.692;6.226;2022-10-13T21:36:26;14.00;98.10
51739;DHT22;37815;52.692;6.226;2022-10-13T21:41:28;14.00;98.10
51739;DHT22;37815;52.692;6.226;2022-10-13T21:46:30;14.00;98.10
51739;DHT22;37815;52.692;6.226;2022-10-13T21:51:34;14.10;98.10
51739;DHT22;37815;52.692;6.226;2022-10-13T21:56:35;14.10;98.10
51739;DHT22;37815;52.692;6.226;2022-10-13T22:01:37;14.00;98.10
51739;DHT22;37815;52.692;6.226;2022-10-13T22:06:38;14.00;98.10
51739;DHT22;37815;52.692;6.226;2022-10-13T22:11:39;14.00;98.10
51739;DHT22;37815;52.692;6.226;2022-10-13T22:16:46;14.00;98.10
51739;DHT22;37815;52.692;6.226;2022-10-13T22:21:48;14.00;98.10
51739;DHT22;37815;52.692;6.226;2022-10-13T22:26:49;14.00;98.10
51739;DHT22;37815;52.692;6.226;2022-10-13T22:31:55;14.00;98.10
51739;DHT22;37815;52.692;6.226;2022-10-13T22:36:55;14.00;98.10
51739;DHT22;37815;52.692;6.226;2022-10-13T22:41:56;14.00;98.10
51739;DHT22;37815;52.692;6.226;2022-10-13T22:46:57;14.00;98.10
51739;DHT22;37815;52.692;6.226;2022-10-13T22:51:57;14.00;98.30
51739;DHT22;37815;52.692;6.226;2022-10-13T22:56:58;14.00;98.10
51739;DHT22;37815;52.692;6.226;2022-10-13T23:01:59;14.00;98.10
51739;DHT22;37815;52.692;6.226;2022-10-13T23:06:59;14.00;98.10
51739;DHT22;37815;52.692;6.226;2022-10-13T23:12:00;14.00;98.10
51739;DHT22;37815;52.692;6.226;2022-10-13T23:17:01;13.90;98.10
51739;DHT22;37815;52.692;6.226;2022-10-13T23:22:02;14.00;98.10
51739;DHT22;37815;52.692;6.226;2022-10-13T23:27:03;13.90;98.10
51739;DHT22;37815;52.692;6.226;2022-10-13T23:32:04;13.90;98.10
51739;DHT22;37815;52.692;6.226;2022-10-13T23:37:05;13.90;98.20
51739;DHT22;37815;52.692;6.226;2022-10-13T23:42:05;13.90;98.20
51739;DHT22;37815;52.692;6.226;2022-10-13T23:47:06;13.90;98.20
51739;DHT22;37815;52.692;6.226;2022-10-13T23:52:07;13.90;98.20
51739;DHT22;37815;52.692;6.226;2022-10-13T23:57:07;14.00;98.20
